sensor_id;sensor_type;location;lat;lon;timestamp;pressure;altitude;pressure_sealevel;temperature
7389;BMP180;3735;50.136;11.062;2024-02-16T00:01:01;98114.00;;;7.40
7389;BMP180;3735;50.136;11.062;2024-02-16T00:03:28;98106.00;;;7.40
7389;BMP180;3735;50.136;11.062;2024-02-16T00:05:54;98110.00;;;7.50
7389;BMP180;3735;50.136;11.062;2024-02-16T00:08:20;98112.00;;;7.50
7389;BMP180;3735;50.136;11.062;2024-02-16T00:10:47;98103.00;;;7.30
7389;BMP180;3735;50.136;11.062;2024-02-16T00:13:13;98108.00;;;7.40
7389;BMP180;3735;50.136;11.062;2024-02-16T00:15:39;98095.00;;;7.40
7389;BMP180;3735;50.136;11.062;2024-02-16T00:18:06;98098.00;;;7.40
7389;BMP180;3735;50.136;11.062;2024-02-16T00:20:32;98097.00;;;7.50
7389;BMP180;3735;50.136;11.062;2024-02-16T00:22:58;98094.00;;;7.50
7389;BMP180;3735;50.136;11.062;2024-02-16T00:25:26;98095.00;;;7.50
7389;BMP180;3735;50.136;11.062;2024-02-16T00:27:52;98098.00;;;7.50
7389;BMP180;3735;50.136;11.062;2024-02-16T00:30:19;98093.00;;;7.50
7389;BMP180;3735;50.136;11.062;2024-02-16T00:32:45;98093.00;;;7.40
7389;BMP180;3735;50.136;11.062;2024-02-16T00:35:17;98102.00;;;7.50
7389;BMP180;3735;50.136;11.062;2024-02-16T00:37:45;98102.00;;;7.50
7389;BMP180;3735;50.136;11.062;2024-02-16T00:40:12;98100.00;;;7.50
7389;BMP180;3735;50.136;11.062;2024-02-16T00:42:38;98102.00;;;7.50
7389;BMP180;3735;50.136;11.062;2024-02-16T00:45:05;98095.00;;;7.50
7389;BMP180;3735;50.136;11.062;2024-02-16T00:47:31;98104.00;;;7.50
7389;BMP180;3735;50.136;11.062;2024-02-16T00:49:56;98109.00;;;7.50
7389;BMP180;3735;50.136;11.062;2024-02-16T00:52:23;98104.00;;;7.50
7389;BMP180;3735;50.136;11.062;2024-02-16T00:54:49;98100.00;;;7.50
7389;BMP180;3735;50.136;11.062;2024-02-16T00:57:15;98098.00;;;7.50
7389;BMP180;3735;50.136;11.062;2024-02-16T00:59:42;98113.00;;;7.50
7389;BMP180;3735;50.136;11.062;2024-02-16T01:02:07;98098.00;;;7.50
7389;BMP180;3735;50.136;11.062;2024-02-16T01:04:35;98099.00;;;7.50
7389;BMP180;3735;50.136;11.062;2024-02-16T01:07:00;98089.00;;;7.60
7389;BMP180;3735;50.136;11.062;2024-02-16T01:09:26;98090.00;;;7.60
7389;BMP180;3735;50.136;11.062;2024-02-16T01:11:52;98089.00;;;7.60
7389;BMP180;3735;50.136;11.062;2024-02-16T01:14:18;98091.00;;;7.60
7389;BMP180;3735;50.136;11.062;2024-02-16T01:16:45;98089.00;;;7.70
7389;BMP180;3735;50.136;11.062;2024-02-16T01:19:11;98082.00;;;7.70
7389;BMP180;3735;50.136;11.062;2024-02-16T01:21:38;98094.00;;;7.80
7389;BMP180;3735;50.136;11.062;2024-02-16T01:24:07;98092.00;;;7.90
7389;BMP180;3735;50.136;11.062;2024-02-16T01:26:34;98081.00;;;7.90
7389;BMP180;3735;50.136;11.062;2024-02-16T01:29:00;98083.00;;;7.90
7389;BMP180;3735;50.136;11.062;2024-02-16T01:31:27;98091.00;;;7.90
7389;BMP180;3735;50.136;11.062;2024-02-16T01:33:53;98076.00;;;7.90
7389;BMP180;3735;50.136;11.062;2024-02-16T01:36:19;98085.00;;;7.90
7389;BMP180;3735;50.136;11.062;2024-02-16T01:38:45;98073.00;;;8.00
7389;BMP180;3735;50.136;11.062;2024-02-16T01:41:10;98078.00;;;8.00
7389;BMP180;3735;50.136;11.062;2024-02-16T01:43:36;98074.00;;;8.00
7389;BMP180;3735;50.136;11.062;2024-02-16T01:46:02;98066.00;;;7.90
7389;BMP180;3735;50.136;11.062;2024-02-16T01:48:28;98074.00;;;7.90
7389;BMP180;3735;50.136;11.062;2024-02-16T01:50:55;98061.00;;;7.80
7389;BMP180;3735;50.136;11.062;2024-02-16T01:53:22;98059.00;;;7.80
7389;BMP180;3735;50.136;11.062;2024-02-16T01:55:49;98066.00;;;7.80
7389;BMP180;3735;50.136;11.062;2024-02-16T01:58:15;98074.00;;;7.70
7389;BMP180;3735;50.136;11.062;2024-02-16T02:00:41;98057.00;;;7.70
7389;BMP180;3735;50.136;11.062;2024-02-16T02:03:07;98069.00;;;7.80
7389;BMP180;3735;50.136;11.062;2024-02-16T02:05:33;98063.00;;;7.90
7389;BMP180;3735;50.136;11.062;2024-02-16T02:08:09;98062.00;;;7.90
7389;BMP180;3735;50.136;11.062;2024-02-16T02:10:34;98045.00;;;7.90
7389;BMP180;3735;50.136;11.062;2024-02-16T02:13:00;98053.00;;;8.00
7389;BMP180;3735;50.136;11.062;2024-02-16T02:15:26;98052.00;;;7.90
7389;BMP180;3735;50.136;11.062;2024-02-16T02:17:52;98051.00;;;8.00
7389;BMP180;3735;50.136;11.062;2024-02-16T02:20:17;98051.00;;;8.00
7389;BMP180;3735;50.136;11.062;2024-02-16T02:22:43;98044.00;;;8.00
7389;BMP180;3735;50.136;11.062;2024-02-16T02:25:09;98035.00;;;8.00
7389;BMP180;3735;50.136;11.062;2024-02-16T02:27:37;98045.00;;;8.00
7389;BMP180;3735;50.136;11.062;2024-02-16T02:30:05;98037.00;;;8.00
7389;BMP180;3735;50.136;11.062;2024-02-16T02:32:31;98038.00;;;8.00
7389;BMP180;3735;50.136;11.062;2024-02-16T02:34:56;98037.00;;;8.00
7389;BMP180;3735;50.136;11.062;2024-02-16T02:37:22;98034.00;;;7.90
7389;BMP180;3735;50.136;11.062;2024-02-16T02:39:48;98036.00;;;7.90
7389;BMP180;3735;50.136;11.062;2024-02-16T02:42:17;98032.00;;;7.90
7389;BMP180;3735;50.136;11.062;2024-02-16T02:44:42;98026.00;;;7.90
7389;BMP180;3735;50.136;11.062;2024-02-16T02:47:18;98018.00;;;7.90
7389;BMP180;3735;50.136;11.062;2024-02-16T02:49:44;98027.00;;;7.80
7389;BMP180;3735;50.136;11.062;2024-02-16T02:52:10;98035.00;;;7.70
7389;BMP180;3735;50.136;11.062;2024-02-16T02:54:36;98033.00;;;7.70
7389;BMP180;3735;50.136;11.062;2024-02-16T02:57:03;97992.00;;;7.80
7389;BMP180;3735;50.136;11.062;2024-02-16T02:59:29;98017.00;;;7.80
7389;BMP180;3735;50.136;11.062;2024-02-16T03:01:54;98017.00;;;7.70
7389;BMP180;3735;50.136;11.062;2024-02-16T03:04:20;98010.00;;;7.60
7389;BMP180;3735;50.136;11.062;2024-02-16T03:06:46;98013.00;;;7.60
7389;BMP180;3735;50.136;11.062;2024-02-16T03:09:12;98006.00;;;7.70
7389;BMP180;3735;50.136;11.062;2024-02-16T03:11:38;98000.00;;;7.60
7389;BMP180;3735;50.136;11.062;2024-02-16T03:14:05;98005.00;;;7.60
7389;BMP180;3735;50.136;11.062;2024-02-16T03:16:32;98014.00;;;7.60
7389;BMP180;3735;50.136;11.062;2024-02-16T03:18:58;98010.00;;;7.50
7389;BMP180;3735;50.136;11.062;2024-02-16T03:21:24;98024.00;;;7.60
7389;BMP180;3735;50.136;11.062;2024-02-16T03:23:50;98026.00;;;7.50
7389;BMP180;3735;50.136;11.062;2024-02-16T03:26:17;98021.00;;;7.60
7389;BMP180;3735;50.136;11.062;2024-02-16T03:28:45;98034.00;;;7.60
7389;BMP180;3735;50.136;11.062;2024-02-16T03:31:24;98038.00;;;7.50
7389;BMP180;3735;50.136;11.062;2024-02-16T03:33:51;98039.00;;;7.50
7389;BMP180;3735;50.136;11.062;2024-02-16T03:36:18;98042.00;;;7.50
7389;BMP180;3735;50.136;11.062;2024-02-16T03:38:48;98037.00;;;7.50
7389;BMP180;3735;50.136;11.062;2024-02-16T03:41:22;98043.00;;;7.50
7389;BMP180;3735;50.136;11.062;2024-02-16T03:43:51;98037.00;;;7.50
7389;BMP180;3735;50.136;11.062;2024-02-16T03:46:17;98038.00;;;7.50
7389;BMP180;3735;50.136;11.062;2024-02-16T03:48:43;98032.00;;;7.60
7389;BMP180;3735;50.136;11.062;2024-02-16T03:51:10;98040.00;;;7.50
7389;BMP180;3735;50.136;11.062;2024-02-16T03:53:36;98028.00;;;7.60
7389;BMP180;3735;50.136;11.062;2024-02-16T03:56:01;98029.00;;;7.70
7389;BMP180;3735;50.136;11.062;2024-02-16T03:58:27;98036.00;;;7.70
7389;BMP180;3735;50.136;11.062;2024-02-16T04:00:53;98028.00;;;7.80
7389;BMP180;3735;50.136;11.062;2024-02-16T04:03:19;98031.00;;;7.80
7389;BMP180;3735;50.136;11.062;2024-02-16T04:05:45;98027.00;;;7.80
7389;BMP180;3735;50.136;11.062;2024-02-16T04:08:11;98030.00;;;7.80
7389;BMP180;3735;50.136;11.062;2024-02-16T04:10:36;98029.00;;;7.80
7389;BMP180;3735;50.136;11.062;2024-02-16T04:13:03;98035.00;;;7.80
7389;BMP180;3735;50.136;11.062;2024-02-16T04:15:30;98035.00;;;7.70
7389;BMP180;3735;50.136;11.062;2024-02-16T04:17:55;98032.00;;;7.80
7389;BMP180;3735;50.136;11.062;2024-02-16T04:20:22;98037.00;;;7.70
7389;BMP180;3735;50.136;11.062;2024-02-16T04:22:47;98045.00;;;7.70
7389;BMP180;3735;50.136;11.062;2024-02-16T04:25:13;98040.00;;;7.70
7389;BMP180;3735;50.136;11.062;2024-02-16T04:27:39;98041.00;;;7.60
7389;BMP180;3735;50.136;11.062;2024-02-16T04:30:05;98043.00;;;7.60
7389;BMP180;3735;50.136;11.062;2024-02-16T04:32:32;98054.00;;;7.50
7389;BMP180;3735;50.136;11.062;2024-02-16T04:34:58;98064.00;;;7.50
7389;BMP180;3735;50.136;11.062;2024-02-16T04:37:27;98057.00;;;7.50
7389;BMP180;3735;50.136;11.062;2024-02-16T04:39:53;98059.00;;;7.50
7389;BMP180;3735;50.136;11.062;2024-02-16T04:42:18;98050.00;;;7.50
7389;BMP180;3735;50.136;11.062;2024-02-16T04:44:44;98037.00;;;7.50
7389;BMP180;3735;50.136;11.062;2024-02-16T04:47:10;98040.00;;;7.60
7389;BMP180;3735;50.136;11.062;2024-02-16T04:49:36;98038.00;;;7.60
7389;BMP180;3735;50.136;11.062;2024-02-16T04:52:03;98021.00;;;7.60
7389;BMP180;3735;50.136;11.062;2024-02-16T04:54:29;98014.00;;;7.60
7389;BMP180;3735;50.136;11.062;2024-02-16T04:56:55;98007.00;;;7.70
7389;BMP180;3735;50.136;11.062;2024-02-16T04:59:20;97990.00;;;7.80
7389;BMP180;3735;50.136;11.062;2024-02-16T05:01:46;98001.00;;;7.90
7389;BMP180;3735;50.136;11.062;2024-02-16T05:04:13;98003.00;;;7.90
7389;BMP180;3735;50.136;11.062;2024-02-16T05:06:43;98022.00;;;7.90
7389;BMP180;3735;50.136;11.062;2024-02-16T05:09:11;98030.00;;;7.90
7389;BMP180;3735;50.136;11.062;2024-02-16T05:11:36;98030.00;;;8.00
7389;BMP180;3735;50.136;11.062;2024-02-16T05:14:02;98025.00;;;8.00
7389;BMP180;3735;50.136;11.062;2024-02-16T05:16:28;98031.00;;;8.00
7389;BMP180;3735;50.136;11.062;2024-02-16T05:18:57;98025.00;;;8.00
7389;BMP180;3735;50.136;11.062;2024-02-16T05:21:23;98028.00;;;7.90
7389;BMP180;3735;50.136;11.062;2024-02-16T05:23:49;98028.00;;;7.90
7389;BMP180;3735;50.136;11.062;2024-02-16T05:26:14;98036.00;;;7.90
7389;BMP180;3735;50.136;11.062;2024-02-16T05:28:40;98029.00;;;8.00
7389;BMP180;3735;50.136;11.062;2024-02-16T05:31:17;98038.00;;;7.90
7389;BMP180;3735;50.136;11.062;2024-02-16T05:33:49;98044.00;;;7.90
7389;BMP180;3735;50.136;11.062;2024-02-16T05:36:19;98046.00;;;7.90
7389;BMP180;3735;50.136;11.062;2024-02-16T05:38:53;98051.00;;;7.90
7389;BMP180;3735;50.136;11.062;2024-02-16T05:41:21;98050.00;;;7.80
7389;BMP180;3735;50.136;11.062;2024-02-16T05:43:47;98042.00;;;7.70
7389;BMP180;3735;50.136;11.062;2024-02-16T05:46:15;98036.00;;;7.80
7389;BMP180;3735;50.136;11.062;2024-02-16T05:48:42;98045.00;;;7.70
7389;BMP180;3735;50.136;11.062;2024-02-16T05:51:08;98050.00;;;7.70
7389;BMP180;3735;50.136;11.062;2024-02-16T05:53:35;98047.00;;;7.60
7389;BMP180;3735;50.136;11.062;2024-02-16T05:56:01;98045.00;;;7.50
7389;BMP180;3735;50.136;11.062;2024-02-16T05:58:27;98035.00;;;7.50
7389;BMP180;3735;50.136;11.062;2024-02-16T06:00:54;98052.00;;;7.50
7389;BMP180;3735;50.136;11.062;2024-02-16T06:03:20;98057.00;;;7.50
7389;BMP180;3735;50.136;11.062;2024-02-16T06:05:47;98054.00;;;7.50
7389;BMP180;3735;50.136;11.062;2024-02-16T06:08:13;98061.00;;;7.40
7389;BMP180;3735;50.136;11.062;2024-02-16T06:10:41;98058.00;;;7.50
7389;BMP180;3735;50.136;11.062;2024-02-16T06:13:07;98056.00;;;7.50
7389;BMP180;3735;50.136;11.062;2024-02-16T06:15:33;98053.00;;;7.50
7389;BMP180;3735;50.136;11.062;2024-02-16T06:18:01;98063.00;;;7.30
7389;BMP180;3735;50.136;11.062;2024-02-16T06:20:27;98072.00;;;7.50
7389;BMP180;3735;50.136;11.062;2024-02-16T06:22:52;98072.00;;;7.50
7389;BMP180;3735;50.136;11.062;2024-02-16T06:25:18;98062.00;;;7.50
7389;BMP180;3735;50.136;11.062;2024-02-16T06:27:44;98066.00;;;7.50
7389;BMP180;3735;50.136;11.062;2024-02-16T06:30:12;98064.00;;;7.50
7389;BMP180;3735;50.136;11.062;2024-02-16T06:32:41;98059.00;;;7.60
7389;BMP180;3735;50.136;11.062;2024-02-16T06:35:08;98062.00;;;7.50
7389;BMP180;3735;50.136;11.062;2024-02-16T06:37:34;98060.00;;;7.60
7389;BMP180;3735;50.136;11.062;2024-02-16T06:40:00;98051.00;;;7.50
7389;BMP180;3735;50.136;11.062;2024-02-16T06:42:26;98056.00;;;7.50
7389;BMP180;3735;50.136;11.062;2024-02-16T06:44:52;98060.00;;;7.50
7389;BMP180;3735;50.136;11.062;2024-02-16T06:47:18;98058.00;;;7.60
7389;BMP180;3735;50.136;11.062;2024-02-16T06:49:44;98048.00;;;7.70
7389;BMP180;3735;50.136;11.062;2024-02-16T06:52:12;98048.00;;;7.70
7389;BMP180;3735;50.136;11.062;2024-02-16T06:54:38;98052.00;;;7.70
7389;BMP180;3735;50.136;11.062;2024-02-16T06:57:04;98076.00;;;7.70
7389;BMP180;3735;50.136;11.062;2024-02-16T06:59:29;98067.00;;;7.80
7389;BMP180;3735;50.136;11.062;2024-02-16T07:01:55;98070.00;;;7.80
7389;BMP180;3735;50.136;11.062;2024-02-16T07:04:21;98081.00;;;7.80
7389;BMP180;3735;50.136;11.062;2024-02-16T07:06:47;98074.00;;;7.80
7389;BMP180;3735;50.136;11.062;2024-02-16T07:09:12;98074.00;;;7.90
7389;BMP180;3735;50.136;11.062;2024-02-16T07:11:42;98068.00;;;8.00
7389;BMP180;3735;50.136;11.062;2024-02-16T07:14:08;98074.00;;;8.10
7389;BMP180;3735;50.136;11.062;2024-02-16T07:16:34;98065.00;;;8.20
7389;BMP180;3735;50.136;11.062;2024-02-16T07:19:00;98066.00;;;8.30
7389;BMP180;3735;50.136;11.062;2024-02-16T07:21:26;98073.00;;;8.40
7389;BMP180;3735;50.136;11.062;2024-02-16T07:23:53;98073.00;;;8.60
7389;BMP180;3735;50.136;11.062;2024-02-16T07:26:18;98088.00;;;8.70
7389;BMP180;3735;50.136;11.062;2024-02-16T07:28:44;98084.00;;;8.90
7389;BMP180;3735;50.136;11.062;2024-02-16T07:31:14;98075.00;;;9.00
7389;BMP180;3735;50.136;11.062;2024-02-16T07:33:40;98084.00;;;9.30
7389;BMP180;3735;50.136;11.062;2024-02-16T07:36:07;98079.00;;;9.50
7389;BMP180;3735;50.136;11.062;2024-02-16T07:38:32;98078.00;;;9.70
7389;BMP180;3735;50.136;11.062;2024-02-16T07:40:59;98081.00;;;10.00
7389;BMP180;3735;50.136;11.062;2024-02-16T07:43:26;98081.00;;;10.00
7389;BMP180;3735;50.136;11.062;2024-02-16T07:45:52;98088.00;;;10.10
7389;BMP180;3735;50.136;11.062;2024-02-16T07:48:22;98095.00;;;10.20
7389;BMP180;3735;50.136;11.062;2024-02-16T07:50:49;98092.00;;;10.20
7389;BMP180;3735;50.136;11.062;2024-02-16T07:53:18;98089.00;;;10.30
7389;BMP180;3735;50.136;11.062;2024-02-16T07:55:43;98097.00;;;10.20
7389;BMP180;3735;50.136;11.062;2024-02-16T07:58:09;98098.00;;;10.20
7389;BMP180;3735;50.136;11.062;2024-02-16T08:00:35;98103.00;;;10.40
7389;BMP180;3735;50.136;11.062;2024-02-16T08:03:01;98090.00;;;10.60
7389;BMP180;3735;50.136;11.062;2024-02-16T08:05:28;98102.00;;;10.70
7389;BMP180;3735;50.136;11.062;2024-02-16T08:07:53;98100.00;;;10.80
7389;BMP180;3735;50.136;11.062;2024-02-16T08:10:20;98101.00;;;11.00
7389;BMP180;3735;50.136;11.062;2024-02-16T08:12:50;98099.00;;;11.00
7389;BMP180;3735;50.136;11.062;2024-02-16T08:15:16;98095.00;;;11.00
7389;BMP180;3735;50.136;11.062;2024-02-16T08:17:49;98104.00;;;10.90
7389;BMP180;3735;50.136;11.062;2024-02-16T08:20:16;98102.00;;;11.30
7389;BMP180;3735;50.136;11.062;2024-02-16T08:22:42;98108.00;;;11.60
7389;BMP180;3735;50.136;11.062;2024-02-16T08:25:08;98101.00;;;12.00
7389;BMP180;3735;50.136;11.062;2024-02-16T08:27:34;98096.00;;;12.40
7389;BMP180;3735;50.136;11.062;2024-02-16T08:30:00;98103.00;;;12.80
7389;BMP180;3735;50.136;11.062;2024-02-16T08:32:28;98089.00;;;13.20
7389;BMP180;3735;50.136;11.062;2024-02-16T08:34:53;98089.00;;;13.50
7389;BMP180;3735;50.136;11.062;2024-02-16T08:37:21;98078.00;;;13.60
7389;BMP180;3735;50.136;11.062;2024-02-16T08:39:47;98079.00;;;13.50
7389;BMP180;3735;50.136;11.062;2024-02-16T08:42:13;98077.00;;;13.10
7389;BMP180;3735;50.136;11.062;2024-02-16T08:44:40;98088.00;;;13.80
7389;BMP180;3735;50.136;11.062;2024-02-16T08:47:08;98094.00;;;13.80
7389;BMP180;3735;50.136;11.062;2024-02-16T08:49:34;98097.00;;;13.90
7389;BMP180;3735;50.136;11.062;2024-02-16T08:52:00;98090.00;;;14.20
7389;BMP180;3735;50.136;11.062;2024-02-16T08:54:26;98090.00;;;14.20
7389;BMP180;3735;50.136;11.062;2024-02-16T08:56:55;98088.00;;;14.30
7389;BMP180;3735;50.136;11.062;2024-02-16T08:59:21;98096.00;;;14.20
7389;BMP180;3735;50.136;11.062;2024-02-16T09:01:47;98094.00;;;14.20
7389;BMP180;3735;50.136;11.062;2024-02-16T09:04:13;98075.00;;;14.10
7389;BMP180;3735;50.136;11.062;2024-02-16T09:06:39;98101.00;;;13.90
7389;BMP180;3735;50.136;11.062;2024-02-16T09:09:05;98098.00;;;13.90
7389;BMP180;3735;50.136;11.062;2024-02-16T09:11:33;98108.00;;;13.70
7389;BMP180;3735;50.136;11.062;2024-02-16T09:13:59;98122.00;;;14.10
7389;BMP180;3735;50.136;11.062;2024-02-16T09:16:26;98121.00;;;14.10
7389;BMP180;3735;50.136;11.062;2024-02-16T09:18:52;98117.00;;;14.00
7389;BMP180;3735;50.136;11.062;2024-02-16T09:21:17;98120.00;;;14.20
7389;BMP180;3735;50.136;11.062;2024-02-16T09:23:43;98118.00;;;14.30
7389;BMP180;3735;50.136;11.062;2024-02-16T09:26:09;98128.00;;;14.30
7389;BMP180;3735;50.136;11.062;2024-02-16T09:28:41;98132.00;;;14.40
7389;BMP180;3735;50.136;11.062;2024-02-16T09:31:07;98133.00;;;14.30
7389;BMP180;3735;50.136;11.062;2024-02-16T09:33:36;98138.00;;;14.20
7389;BMP180;3735;50.136;11.062;2024-02-16T09:36:02;98145.00;;;14.10
7389;BMP180;3735;50.136;11.062;2024-02-16T09:38:27;98146.00;;;14.40
7389;BMP180;3735;50.136;11.062;2024-02-16T09:40:56;98145.00;;;14.40
7389;BMP180;3735;50.136;11.062;2024-02-16T09:43:27;98141.00;;;14.70
7389;BMP180;3735;50.136;11.062;2024-02-16T09:45:58;98144.00;;;14.70
7389;BMP180;3735;50.136;11.062;2024-02-16T09:48:27;98155.00;;;14.90
7389;BMP180;3735;50.136;11.062;2024-02-16T09:50:54;98151.00;;;14.90
7389;BMP180;3735;50.136;11.062;2024-02-16T09:53:27;98156.00;;;14.90
7389;BMP180;3735;50.136;11.062;2024-02-16T09:55:54;98152.00;;;14.90
7389;BMP180;3735;50.136;11.062;2024-02-16T09:58:20;98150.00;;;15.00
7389;BMP180;3735;50.136;11.062;2024-02-16T10:00:51;98154.00;;;15.30
7389;BMP180;3735;50.136;11.062;2024-02-16T10:03:25;98151.00;;;15.80
7389;BMP180;3735;50.136;11.062;2024-02-16T10:05:52;98151.00;;;15.90
7389;BMP180;3735;50.136;11.062;2024-02-16T10:08:19;98163.00;;;16.60
7389;BMP180;3735;50.136;11.062;2024-02-16T10:11:04;98162.00;;;16.40
7389;BMP180;3735;50.136;11.062;2024-02-16T10:13:31;98168.00;;;16.90
7389;BMP180;3735;50.136;11.062;2024-02-16T10:16:11;98163.00;;;17.00
7389;BMP180;3735;50.136;11.062;2024-02-16T10:18:38;98159.00;;;17.00
7389;BMP180;3735;50.136;11.062;2024-02-16T10:21:05;98163.00;;;17.60
7389;BMP180;3735;50.136;11.062;2024-02-16T10:23:31;98158.00;;;18.60
7389;BMP180;3735;50.136;11.062;2024-02-16T10:25:58;98149.00;;;19.80
7389;BMP180;3735;50.136;11.062;2024-02-16T10:28:28;98152.00;;;20.80
7389;BMP180;3735;50.136;11.062;2024-02-16T10:30:59;98150.00;;;21.20
7389;BMP180;3735;50.136;11.062;2024-02-16T10:33:31;98154.00;;;20.80
7389;BMP180;3735;50.136;11.062;2024-02-16T10:35:58;98150.00;;;21.50
7389;BMP180;3735;50.136;11.062;2024-02-16T10:38:25;98141.00;;;21.40
7389;BMP180;3735;50.136;11.062;2024-02-16T10:40:56;98147.00;;;21.20
7389;BMP180;3735;50.136;11.062;2024-02-16T10:43:23;98140.00;;;21.60
7389;BMP180;3735;50.136;11.062;2024-02-16T10:45:49;98146.00;;;21.80
7389;BMP180;3735;50.136;11.062;2024-02-16T10:48:18;98138.00;;;21.70
7389;BMP180;3735;50.136;11.062;2024-02-16T10:50:44;98142.00;;;21.60
7389;BMP180;3735;50.136;11.062;2024-02-16T10:53:26;98147.00;;;21.50
7389;BMP180;3735;50.136;11.062;2024-02-16T10:55:57;98147.00;;;21.10
7389;BMP180;3735;50.136;11.062;2024-02-16T10:58:27;98142.00;;;20.70
7389;BMP180;3735;50.136;11.062;2024-02-16T11:00:54;98145.00;;;20.20
7389;BMP180;3735;50.136;11.062;2024-02-16T11:03:27;98143.00;;;19.90
7389;BMP180;3735;50.136;11.062;2024-02-16T11:05:54;98136.00;;;20.20
7389;BMP180;3735;50.136;11.062;2024-02-16T11:08:37;98139.00;;;20.90
7389;BMP180;3735;50.136;11.062;2024-02-16T11:11:06;98141.00;;;20.70
7389;BMP180;3735;50.136;11.062;2024-02-16T11:13:35;98134.00;;;20.90
7389;BMP180;3735;50.136;11.062;2024-02-16T11:16:07;98146.00;;;21.00
7389;BMP180;3735;50.136;11.062;2024-02-16T11:18:39;98135.00;;;21.10
7389;BMP180;3735;50.136;11.062;2024-02-16T11:21:06;98141.00;;;21.40
7389;BMP180;3735;50.136;11.062;2024-02-16T11:23:35;98144.00;;;21.30
7389;BMP180;3735;50.136;11.062;2024-02-16T11:26:04;98143.00;;;21.60
7389;BMP180;3735;50.136;11.062;2024-02-16T11:28:34;98147.00;;;21.50
7389;BMP180;3735;50.136;11.062;2024-02-16T11:31:01;98148.00;;;21.30
7389;BMP180;3735;50.136;11.062;2024-02-16T11:33:28;98142.00;;;21.60
7389;BMP180;3735;50.136;11.062;2024-02-16T11:36:04;98148.00;;;21.20
7389;BMP180;3735;50.136;11.062;2024-02-16T11:38:33;98144.00;;;20.80
7389;BMP180;3735;50.136;11.062;2024-02-16T11:41:05;98151.00;;;19.90
7389;BMP180;3735;50.136;11.062;2024-02-16T11:43:33;98149.00;;;19.60
7389;BMP180;3735;50.136;11.062;2024-02-16T11:46:10;98161.00;;;19.50
7389;BMP180;3735;50.136;11.062;2024-02-16T11:48:37;98158.00;;;18.90
7389;BMP180;3735;50.136;11.062;2024-02-16T11:51:04;98152.00;;;18.40
7389;BMP180;3735;50.136;11.062;2024-02-16T11:53:31;98154.00;;;18.10
7389;BMP180;3735;50.136;11.062;2024-02-16T11:55:57;98145.00;;;18.20
7389;BMP180;3735;50.136;11.062;2024-02-16T11:58:24;98149.00;;;18.60
7389;BMP180;3735;50.136;11.062;2024-02-16T12:00:51;98137.00;;;18.40
7389;BMP180;3735;50.136;11.062;2024-02-16T12:03:25;98146.00;;;18.10
7389;BMP180;3735;50.136;11.062;2024-02-16T12:05:57;98139.00;;;18.50
7389;BMP180;3735;50.136;11.062;2024-02-16T12:08:31;98136.00;;;18.00
7389;BMP180;3735;50.136;11.062;2024-02-16T12:10:57;98139.00;;;17.90
7389;BMP180;3735;50.136;11.062;2024-02-16T12:13:23;98137.00;;;17.90
7389;BMP180;3735;50.136;11.062;2024-02-16T12:15:51;98145.00;;;17.50
7389;BMP180;3735;50.136;11.062;2024-02-16T12:18:25;98136.00;;;17.40
7389;BMP180;3735;50.136;11.062;2024-02-16T12:21:05;98134.00;;;17.40
7389;BMP180;3735;50.136;11.062;2024-02-16T12:23:33;98133.00;;;17.70
7389;BMP180;3735;50.136;11.062;2024-02-16T12:26:00;98135.00;;;17.70
7389;BMP180;3735;50.136;11.062;2024-02-16T12:28:28;98132.00;;;17.90
7389;BMP180;3735;50.136;11.062;2024-02-16T12:30:58;98128.00;;;17.50
7389;BMP180;3735;50.136;11.062;2024-02-16T12:33:24;98129.00;;;17.80
7389;BMP180;3735;50.136;11.062;2024-02-16T12:35:51;98126.00;;;17.30
7389;BMP180;3735;50.136;11.062;2024-02-16T12:38:17;98126.00;;;17.30
7389;BMP180;3735;50.136;11.062;2024-02-16T12:40:46;98117.00;;;17.10
7389;BMP180;3735;50.136;11.062;2024-02-16T12:43:13;98135.00;;;17.10
7389;BMP180;3735;50.136;11.062;2024-02-16T12:45:39;98138.00;;;16.90
7389;BMP180;3735;50.136;11.062;2024-02-16T12:48:06;98135.00;;;17.20
7389;BMP180;3735;50.136;11.062;2024-02-16T12:50:32;98139.00;;;17.80
7389;BMP180;3735;50.136;11.062;2024-02-16T12:53:01;98139.00;;;18.20
7389;BMP180;3735;50.136;11.062;2024-02-16T12:55:26;98135.00;;;18.10
7389;BMP180;3735;50.136;11.062;2024-02-16T12:57:53;98135.00;;;18.50
7389;BMP180;3735;50.136;11.062;2024-02-16T13:00:19;98141.00;;;18.50
7389;BMP180;3735;50.136;11.062;2024-02-16T13:02:45;98139.00;;;18.60
7389;BMP180;3735;50.136;11.062;2024-02-16T13:05:11;98137.00;;;18.00
7389;BMP180;3735;50.136;11.062;2024-02-16T13:07:37;98140.00;;;18.00
7389;BMP180;3735;50.136;11.062;2024-02-16T13:10:06;98137.00;;;18.00
7389;BMP180;3735;50.136;11.062;2024-02-16T13:12:33;98138.00;;;18.10
7389;BMP180;3735;50.136;11.062;2024-02-16T13:14:58;98138.00;;;18.20
7389;BMP180;3735;50.136;11.062;2024-02-16T13:17:24;98140.00;;;18.30
7389;BMP180;3735;50.136;11.062;2024-02-16T13:19:52;98137.00;;;18.30
7389;BMP180;3735;50.136;11.062;2024-02-16T13:22:18;98130.00;;;17.50
7389;BMP180;3735;50.136;11.062;2024-02-16T13:24:44;98125.00;;;17.40
7389;BMP180;3735;50.136;11.062;2024-02-16T13:27:10;98125.00;;;17.70
7389;BMP180;3735;50.136;11.062;2024-02-16T13:29:36;98123.00;;;18.00
7389;BMP180;3735;50.136;11.062;2024-02-16T13:32:02;98123.00;;;17.80
7389;BMP180;3735;50.136;11.062;2024-02-16T13:34:29;98127.00;;;18.10
7389;BMP180;3735;50.136;11.062;2024-02-16T13:36:56;98122.00;;;18.30
7389;BMP180;3735;50.136;11.062;2024-02-16T13:39:21;98119.00;;;18.30
7389;BMP180;3735;50.136;11.062;2024-02-16T13:41:48;98109.00;;;18.70
7389;BMP180;3735;50.136;11.062;2024-02-16T13:44:17;98112.00;;;18.90
7389;BMP180;3735;50.136;11.062;2024-02-16T13:46:46;98109.00;;;19.30
7389;BMP180;3735;50.136;11.062;2024-02-16T13:49:13;98108.00;;;19.30
7389;BMP180;3735;50.136;11.062;2024-02-16T13:51:41;98104.00;;;20.10
7389;BMP180;3735;50.136;11.062;2024-02-16T13:54:07;98115.00;;;20.50
7389;BMP180;3735;50.136;11.062;2024-02-16T13:56:33;98112.00;;;20.30
7389;BMP180;3735;50.136;11.062;2024-02-16T13:59:01;98110.00;;;19.50
7389;BMP180;3735;50.136;11.062;2024-02-16T14:01:29;98117.00;;;19.60
7389;BMP180;3735;50.136;11.062;2024-02-16T14:03:55;98127.00;;;19.30
7389;BMP180;3735;50.136;11.062;2024-02-16T14:06:21;98126.00;;;19.00
7389;BMP180;3735;50.136;11.062;2024-02-16T14:08:47;98126.00;;;18.80
7389;BMP180;3735;50.136;11.062;2024-02-16T14:11:18;98129.00;;;19.10
7389;BMP180;3735;50.136;11.062;2024-02-16T14:13:44;98137.00;;;19.30
7389;BMP180;3735;50.136;11.062;2024-02-16T14:16:11;98138.00;;;19.40
7389;BMP180;3735;50.136;11.062;2024-02-16T14:18:37;98135.00;;;19.40
7389;BMP180;3735;50.136;11.062;2024-02-16T14:21:03;98134.00;;;20.70
7389;BMP180;3735;50.136;11.062;2024-02-16T14:23:30;98132.00;;;20.70
7389;BMP180;3735;50.136;11.062;2024-02-16T14:25:56;98125.00;;;21.40
7389;BMP180;3735;50.136;11.062;2024-02-16T14:28:22;98134.00;;;21.60